createdAt,value
2022-10-05T04:46:00.670Z,11.51
2022-10-05T04:47:01.786Z,11.44
2022-10-05T04:48:01.646Z,11.43
2022-10-05T04:49:01.647Z,11.42
2022-10-05T04:50:01.620Z,11.44
2022-10-05T04:51:01.628Z,11.44
2022-10-05T04:52:01.604Z,11.44
2022-10-05T04:53:01.597Z,11.35
2022-10-05T04:54:01.601Z,11.27
2022-10-05T04:55:01.577Z,11.22
2022-10-05T04:56:01.561Z,11.15
2022-10-05T04:57:01.564Z,11.07
2022-10-05T04:58:01.536Z,11.02
2022-10-05T04:59:01.548Z,10.89
2022-10-05T05:00:01.515Z,10.85
2022-10-05T05:01:01.603Z,10.79
2022-10-05T05:02:01.494Z,10.70
2022-10-05T05:03:01.484Z,10.63
2022-10-05T05:04:01.588Z,10.56
2022-10-05T05:05:01.469Z,10.51
2022-10-05T05:06:18.026Z,10.47
2022-10-05T05:07:01.480Z,10.38
2022-10-05T05:08:01.429Z,10.40
2022-10-05T05:09:01.440Z,10.41
2022-10-05T05:10:01.427Z,10.34
2022-10-05T05:11:01.405Z,10.30
2022-10-05T05:12:01.387Z,10.23
2022-10-05T05:13:01.384Z,10.18
2022-10-05T05:14:01.378Z,10.20
2022-10-05T05:15:01.362Z,10.44
2022-10-05T05:16:01.407Z,10.51
2022-10-05T05:17:01.337Z,10.53
2022-10-05T05:18:01.331Z,10.52
2022-10-05T05:19:01.331Z,10.45
2022-10-05T05:20:01.307Z,10.40
2022-10-05T05:21:01.294Z,10.32
2022-10-05T05:22:01.281Z,10.25
2022-10-05T05:23:01.278Z,10.22
2022-10-05T05:24:01.271Z,10.17
2022-10-05T05:25:01.255Z,10.12
2022-10-05T05:26:01.238Z,10.12
2022-10-05T05:27:01.240Z,10.11
2022-10-05T05:28:01.274Z,10.08
2022-10-05T05:29:01.235Z,10.08
2022-10-05T05:30:01.195Z,10.09
2022-10-05T05:31:01.255Z,10.08
2022-10-05T05:32:01.173Z,10.11
2022-10-05T05:33:01.188Z,10.14
2022-10-05T05:34:01.168Z,10.25
2022-10-05T05:35:01.153Z,10.30
2022-10-05T05:36:01.136Z,10.29
2022-10-05T05:37:01.136Z,10.32
2022-10-05T05:38:01.113Z,10.34
2022-10-05T05:39:01.134Z,10.38
2022-10-05T05:40:01.099Z,10.47
2022-10-05T05:41:01.100Z,10.51
2022-10-05T05:42:01.073Z,10.48
2022-10-05T05:43:01.061Z,10.59
2022-10-05T05:44:01.049Z,10.60
2022-10-05T05:45:01.055Z,10.59
2022-10-05T05:46:01.024Z,10.70
2022-10-05T05:47:05.281Z,10.78
2022-10-05T05:48:01.009Z,10.78
2022-10-05T05:49:01.003Z,10.73
2022-10-05T05:50:06.556Z,10.78
2022-10-05T05:51:00.988Z,10.82
2022-10-05T05:52:00.964Z,10.89
2022-10-05T05:53:00.975Z,11.02
2022-10-05T05:54:00.947Z,11.18
2022-10-05T05:55:00.945Z,11.22
2022-10-05T05:56:00.933Z,11.24
2022-10-05T05:57:00.917Z,11.32
2022-10-05T05:58:00.902Z,11.32
2022-10-05T05:59:00.901Z,11.33
2022-10-05T06:00:00.901Z,11.40
2022-10-05T06:01:00.886Z,11.44
2022-10-05T06:02:01.020Z,11.43
2022-10-05T06:03:00.983Z,11.43
2022-10-05T06:04:00.837Z,11.43
2022-10-05T06:05:00.848Z,11.46
2022-10-05T06:06:00.814Z,11.54
2022-10-05T06:07:00.826Z,11.64
2022-10-05T06:08:00.800Z,11.69
2022-10-05T06:09:00.796Z,11.72
2022-10-05T06:10:00.789Z,11.73
2022-10-05T06:11:00.774Z,11.79
2022-10-05T06:12:00.760Z,11.79
2022-10-05T06:13:01.820Z,11.83
2022-10-05T06:14:00.739Z,11.88
2022-10-05T06:15:00.743Z,11.94
2022-10-05T06:16:00.746Z,11.98
2022-10-05T06:17:00.707Z,11.98
2022-10-05T06:18:00.693Z,11.98
2022-10-05T06:19:00.703Z,12.01
2022-10-05T06:20:04.894Z,12.04
2022-10-05T06:21:00.660Z,12.09
2022-10-05T06:22:00.652Z,12.14
2022-10-05T06:23:00.646Z,12.16
2022-10-05T06:24:00.628Z,12.19
2022-10-05T06:25:00.634Z,12.20
2022-10-05T06:26:00.605Z,12.23
2022-10-05T06:27:00.600Z,12.27
2022-10-05T06:28:00.625Z,12.34
2022-10-05T06:29:00.577Z,12.34
2022-10-05T06:30:00.586Z,12.38
2022-10-05T06:31:00.580Z,12.38
2022-10-05T06:32:00.615Z,12.39
2022-10-05T06:33:00.538Z,12.41
2022-10-05T06:34:00.528Z,12.42
2022-10-05T06:35:00.527Z,12.45
2022-10-05T06:36:00.514Z,12.49
2022-10-05T06:37:00.493Z,12.54
2022-10-05T06:38:00.478Z,12.57
2022-10-05T06:39:00.484Z,12.65
2022-10-05T06:40:01.364Z,12.67
2022-10-05T06:41:00.476Z,12.68
2022-10-05T06:42:00.454Z,12.70
2022-10-05T06:43:00.436Z,12.75
2022-10-05T06:44:00.418Z,12.78
2022-10-05T06:45:00.419Z,12.78
2022-10-05T06:46:00.439Z,12.83
2022-10-05T06:47:00.392Z,12.79
2022-10-05T06:48:05.022Z,12.85
2022-10-05T06:49:00.374Z,12.89
2022-10-05T06:50:00.370Z,12.93
2022-10-05T06:51:00.364Z,12.92
2022-10-05T06:52:00.329Z,12.96
2022-10-05T06:53:00.335Z,13.00
2022-10-05T06:54:00.333Z,13.00
2022-10-05T06:55:00.332Z,13.01
2022-10-05T06:56:00.298Z,13.04
2022-10-05T06:57:00.289Z,13.10
2022-10-05T06:58:00.266Z,13.12
2022-10-05T06:59:00.257Z,13.14
2022-10-05T07:00:00.279Z,13.14
2022-10-05T07:01:00.311Z,13.17
2022-10-05T07:02:00.280Z,13.22
2022-10-05T07:03:00.213Z,13.20
2022-10-05T07:04:00.199Z,13.25
2022-10-05T07:05:00.202Z,13.25
2022-10-05T07:06:00.190Z,13.29
2022-10-05T07:07:00.176Z,13.26
2022-10-05T07:08:00.153Z,13.32
2022-10-05T07:09:00.148Z,13.36
2022-10-05T07:10:00.143Z,13.38
2022-10-05T07:11:00.160Z,13.39
2022-10-05T07:12:04.848Z,13.36
2022-10-05T07:13:00.110Z,13.42
2022-10-05T07:14:00.098Z,13.41
2022-10-05T07:15:00.093Z,13.42
2022-10-05T07:16:00.226Z,13.45
2022-10-05T07:17:00.090Z,13.49
2022-10-05T07:18:00.055Z,13.54
2022-10-05T07:19:00.053Z,13.59
2022-10-05T07:20:00.030Z,13.60
2022-10-05T07:21:00.021Z,13.60
2022-10-05T07:22:00.047Z,13.63
2022-10-05T07:23:00.002Z,13.64
2022-10-05T07:23:59.983Z,13.63
2022-10-05T07:24:59.986Z,13.63
2022-10-05T07:25:59.976Z,13.62
2022-10-05T07:26:59.965Z,13.67
2022-10-05T07:27:59.963Z,13.67
2022-10-05T07:28:59.930Z,13.71
2022-10-05T07:29:59.913Z,13.79
2022-10-05T07:31:00.065Z,13.85
2022-10-05T07:31:59.903Z,13.85
2022-10-05T07:32:59.884Z,13.87
2022-10-05T07:33:59.889Z,13.82
2022-10-05T07:34:59.886Z,13.85
2022-10-05T07:35:59.846Z,13.91
2022-10-05T07:36:59.853Z,13.88
2022-10-05T07:37:59.824Z,13.92
2022-10-05T07:38:59.816Z,13.96
2022-10-05T07:40:01.098Z,13.97
2022-10-05T07:40:59.794Z,13.95
2022-10-05T07:41:59.790Z,13.91
2022-10-05T07:42:59.776Z,13.96
2022-10-05T07:44:03.789Z,13.97
2022-10-05T07:44:59.766Z,13.99
2022-10-05T07:45:59.783Z,14.02
2022-10-05T07:46:59.743Z,14.07
2022-10-05T07:47:59.718Z,14.07
2022-10-05T07:48:59.709Z,14.07
2022-10-05T07:49:59.711Z,14.07
2022-10-05T07:50:59.705Z,14.14
2022-10-05T07:51:59.673Z,14.22
2022-10-05T07:52:59.668Z,14.27
2022-10-05T07:53:59.653Z,14.28
2022-10-05T07:54:59.645Z,14.27
2022-10-05T07:55:59.653Z,14.32
2022-10-05T07:56:59.627Z,14.33
2022-10-05T07:57:59.613Z,14.37
2022-10-05T07:58:59.622Z,14.36
2022-10-05T07:59:59.607Z,14.36
2022-10-05T08:00:59.590Z,14.39
2022-10-05T08:01:59.698Z,14.42
2022-10-05T08:02:59.608Z,14.45
2022-10-05T08:03:59.553Z,14.42
2022-10-05T08:04:59.535Z,14.43
2022-10-05T08:05:59.554Z,14.45
2022-10-05T08:06:59.510Z,14.45
2022-10-05T08:07:59.517Z,14.52
2022-10-05T08:08:59.498Z,14.52
2022-10-05T08:09:59.485Z,14.47
2022-10-05T08:10:59.489Z,14.45
2022-10-05T08:11:59.456Z,14.45
2022-10-05T08:12:59.455Z,14.42
2022-10-05T08:13:59.437Z,14.47
2022-10-05T08:14:59.421Z,14.50
2022-10-05T08:15:59.507Z,14.52
2022-10-05T08:16:59.413Z,14.57
2022-10-05T08:17:59.393Z,14.60
2022-10-05T08:18:59.378Z,14.65
2022-10-05T08:19:59.384Z,14.69
2022-10-05T08:20:59.384Z,14.72
2022-10-05T08:21:59.365Z,14.72
2022-10-05T08:22:59.335Z,14.77
2022-10-05T08:23:59.328Z,14.86
2022-10-05T08:24:59.313Z,14.88
2022-10-05T08:25:59.306Z,14.89
2022-10-05T08:26:59.314Z,14.95
2022-10-05T08:27:59.339Z,14.94
2022-10-05T08:28:59.267Z,14.94
2022-10-05T08:29:59.262Z,14.96
2022-10-05T08:30:59.351Z,15.02
2022-10-05T08:31:59.261Z,15.07
2022-10-05T08:32:59.227Z,15.09
2022-10-05T08:33:59.222Z,15.07
2022-10-05T08:34:59.216Z,15.07
2022-10-05T08:35:59.210Z,15.11
2022-10-05T08:36:59.267Z,15.10
2022-10-05T08:37:59.208Z,15.10
2022-10-05T08:38:59.204Z,15.16
2022-10-05T08:39:59.180Z,15.11
2022-10-05T08:40:59.288Z,15.11
2022-10-05T08:41:59.163Z,15.17
2022-10-05T08:42:59.119Z,15.16
2022-10-05T08:43:59.114Z,15.16
2022-10-05T08:44:59.102Z,15.14
2022-10-05T08:45:59.214Z,15.17
2022-10-05T08:46:59.090Z,15.13
2022-10-05T08:47:59.066Z,15.17
2022-10-05T08:48:59.056Z,15.14
2022-10-05T08:49:59.065Z,15.10
2022-10-05T08:50:59.032Z,15.11
2022-10-05T08:51:59.047Z,15.16
2022-10-05T08:52:59.015Z,15.23
2022-10-05T08:53:59.012Z,15.25
2022-10-05T08:54:58.989Z,15.29
2022-10-05T08:55:58.989Z,15.35
2022-10-05T08:56:58.988Z,15.36
2022-10-05T08:57:58.964Z,15.35
2022-10-05T08:58:58.947Z,15.38
2022-10-05T08:59:58.968Z,15.39
2022-10-05T09:00:59.001Z,15.39
2022-10-05T09:01:59.017Z,15.39
2022-10-05T09:02:58.998Z,15.43
2022-10-05T09:03:58.913Z,15.46
2022-10-05T09:04:58.886Z,15.49
2022-10-05T09:05:58.877Z,15.49
2022-10-05T09:06:58.904Z,15.47
2022-10-05T09:07:58.855Z,15.50
2022-10-05T09:08:58.854Z,15.56
2022-10-05T09:10:01.662Z,15.64
2022-10-05T09:10:58.816Z,15.64
2022-10-05T09:11:58.827Z,15.67
2022-10-05T09:12:58.816Z,15.69
2022-10-05T09:13:58.791Z,15.74
2022-10-05T09:15:23.840Z,15.74
2022-10-05T09:15:58.834Z,15.80
2022-10-05T09:16:58.788Z,15.82
2022-10-05T09:17:58.746Z,15.86
2022-10-05T09:18:58.752Z,15.93
2022-10-05T09:19:58.725Z,15.94
2022-10-05T09:20:58.714Z,15.96
2022-10-05T09:21:58.719Z,16.02
2022-10-05T09:22:58.704Z,16.08
2022-10-05T09:23:58.699Z,16.08
2022-10-05T09:24:58.667Z,16.12
2022-10-05T09:25:58.690Z,16.05
2022-10-05T09:26:58.673Z,16.07
2022-10-05T09:27:58.713Z,16.04
2022-10-05T09:28:58.625Z,16.07
2022-10-05T09:29:58.624Z,16.20
2022-10-05T09:30:58.692Z,16.31
2022-10-05T09:31:58.611Z,16.25
2022-10-05T09:32:58.583Z,16.28
2022-10-05T09:33:58.574Z,16.24
2022-10-05T09:34:58.587Z,16.30
2022-10-05T09:35:58.551Z,16.31
2022-10-05T09:36:58.567Z,16.30
2022-10-05T09:37:58.573Z,16.25
2022-10-05T09:38:58.541Z,16.27
2022-10-05T09:40:01.371Z,16.28
2022-10-05T09:40:58.506Z,16.45
2022-10-05T09:41:58.508Z,16.49
2022-10-05T09:42:58.471Z,16.58
2022-10-05T09:43:58.468Z,16.58
2022-10-05T09:44:58.454Z,16.60
2022-10-05T09:45:58.513Z,16.67
2022-10-05T09:46:58.432Z,16.64
2022-10-05T09:47:58.437Z,16.52
2022-10-05T09:48:58.410Z,16.50
2022-10-05T09:49:58.422Z,16.52
2022-10-05T09:50:58.391Z,16.64
2022-10-05T09:51:58.375Z,16.78
2022-10-05T09:52:58.384Z,16.91
2022-10-05T09:53:58.369Z,16.94
2022-10-05T09:54:58.346Z,16.97
2022-10-05T09:55:58.334Z,16.88
2022-10-05T09:56:58.377Z,17.01
2022-10-05T09:57:58.334Z,17.07
2022-10-05T09:58:58.297Z,17.06
2022-10-05T09:59:58.311Z,17.08
2022-10-05T10:01:09.193Z,17.15
2022-10-05T10:01:58.412Z,17.12
2022-10-05T10:02:58.375Z,17.00
2022-10-05T10:03:58.251Z,17.15
2022-10-05T10:04:58.235Z,17.15
2022-10-05T10:05:58.228Z,17.26
2022-10-05T10:06:58.226Z,17.41
2022-10-05T10:07:58.231Z,17.44
2022-10-05T10:08:58.192Z,17.40
2022-10-05T10:09:58.181Z,17.25
2022-10-05T10:10:58.182Z,17.16
2022-10-05T10:11:58.181Z,17.11
2022-10-05T10:12:58.148Z,17.19
2022-10-05T10:13:58.140Z,17.37
2022-10-05T10:15:02.514Z,17.31
2022-10-05T10:15:58.150Z,17.34
2022-10-05T10:16:58.116Z,17.41
2022-10-05T10:17:58.096Z,17.38
2022-10-05T10:18:58.082Z,17.36
2022-10-05T10:19:58.073Z,17.40
2022-10-05T10:20:58.060Z,17.62
2022-10-05T10:21:58.100Z,17.51
2022-10-05T10:22:58.035Z,17.43
2022-10-05T10:23:58.030Z,17.44
2022-10-05T10:24:58.014Z,17.43
2022-10-05T10:25:58.022Z,17.51
2022-10-05T10:26:58.016Z,17.48
2022-10-05T10:27:58.022Z,17.63
2022-10-05T10:28:57.968Z,17.43
2022-10-05T10:29:57.966Z,17.59
2022-10-05T10:30:58.145Z,17.63
2022-10-05T10:31:57.958Z,17.59
2022-10-05T10:32:57.925Z,17.48
2022-10-05T10:33:57.927Z,17.66
2022-10-05T10:34:57.906Z,17.82
2022-10-05T10:36:00.459Z,17.70
2022-10-05T10:36:57.904Z,17.81
2022-10-05T10:37:57.873Z,17.93
2022-10-05T10:38:57.869Z,18.05
2022-10-05T10:39:57.855Z,18.07
2022-10-05T10:40:57.846Z,18.11
2022-10-05T10:41:57.856Z,18.00
2022-10-05T10:42:57.820Z,17.93
2022-10-05T10:43:57.812Z,18.00
2022-10-05T10:44:57.798Z,17.96
2022-10-05T10:45:57.823Z,17.89
2022-10-05T10:46:57.803Z,17.89
2022-10-05T10:47:57.818Z,17.84
2022-10-05T10:48:57.766Z,17.93
2022-10-05T10:49:57.774Z,17.86
2022-10-05T10:50:57.741Z,17.78
2022-10-05T10:51:57.728Z,17.82
2022-10-05T10:52:57.726Z,17.87
2022-10-05T10:53:57.710Z,17.96
2022-10-05T10:54:57.690Z,18.02
2022-10-05T10:55:57.713Z,17.89
2022-10-05T10:56:57.680Z,17.92
2022-10-05T10:57:57.660Z,17.97
2022-10-05T10:58:57.658Z,17.78
2022-10-05T10:59:57.636Z,17.77
2022-10-05T11:00:57.622Z,17.79
2022-10-05T11:01:57.698Z,17.95
2022-10-05T11:02:57.697Z,17.87
2022-10-05T11:03:57.611Z,17.92
2022-10-05T11:04:57.577Z,17.84
2022-10-05T11:05:57.589Z,17.93
2022-10-05T11:06:57.599Z,18.02
2022-10-05T11:07:57.562Z,17.90
2022-10-05T11:08:57.537Z,17.87
2022-10-05T11:09:57.525Z,17.95
2022-10-05T11:10:57.513Z,17.78
2022-10-05T11:11:57.512Z,17.71
2022-10-05T11:12:57.523Z,17.79
2022-10-05T11:13:57.492Z,17.79
2022-10-05T11:14:57.479Z,17.86
2022-10-05T11:15:57.603Z,17.89
2022-10-05T11:16:57.446Z,17.82
2022-10-05T11:17:57.453Z,17.86
2022-10-05T11:18:57.423Z,17.87
2022-10-05T11:20:06.350Z,17.70
2022-10-05T11:20:57.414Z,17.71
2022-10-05T11:21:57.395Z,17.84
2022-10-05T11:22:57.399Z,17.84
2022-10-05T11:23:57.375Z,17.77
2022-10-05T11:24:57.360Z,17.74
2022-10-05T11:25:57.353Z,17.92
2022-10-05T11:26:57.337Z,17.95
2022-10-05T11:27:57.368Z,18.11
2022-10-05T11:28:57.311Z,18.30
2022-10-05T11:29:57.310Z,18.14
2022-10-05T11:30:57.347Z,17.97
2022-10-05T11:31:57.349Z,18.05
2022-10-05T11:32:57.286Z,18.10
2022-10-05T11:33:57.265Z,18.11
2022-10-05T11:34:57.254Z,18.05
2022-10-05T11:35:57.243Z,18.08
2022-10-05T11:36:57.228Z,18.15
2022-10-05T11:37:57.245Z,18.10
2022-10-05T11:38:57.216Z,18.25
2022-10-05T11:39:57.200Z,18.30
2022-10-05T11:40:57.183Z,18.36
2022-10-05T11:41:57.186Z,18.21
2022-10-05T11:42:57.174Z,18.29
2022-10-05T11:43:57.165Z,18.26
2022-10-05T11:44:57.144Z,18.26
2022-10-05T11:45:57.131Z,18.25
2022-10-05T11:46:57.118Z,18.14
2022-10-05T11:47:57.126Z,18.36
2022-10-05T11:48:57.145Z,18.35
2022-10-05T11:49:57.096Z,18.39
2022-10-05T11:50:57.088Z,18.57
2022-10-05T11:51:57.072Z,18.52
2022-10-05T11:52:57.076Z,18.58
2022-10-05T11:53:57.049Z,18.65
2022-10-05T11:55:12.608Z,18.58
2022-10-05T11:55:57.032Z,18.57
2022-10-05T11:56:57.306Z,18.82
2022-10-05T11:57:57.017Z,18.81
2022-10-05T11:58:57.007Z,18.62
2022-10-05T11:59:56.984Z,18.48
2022-10-05T12:00:56.973Z,18.67
2022-10-05T12:01:56.965Z,18.65
2022-10-05T12:02:57.063Z,18.76
2022-10-05T12:03:57.066Z,19.43
2022-10-05T12:04:56.942Z,20.48
2022-10-05T12:05:56.927Z,20.85
2022-10-05T12:06:56.911Z,19.61
2022-10-05T12:07:56.893Z,20.62
2022-10-05T12:08:56.909Z,21.34
2022-10-05T12:09:56.883Z,21.53
2022-10-05T12:10:56.870Z,22.27
2022-10-05T12:11:58.014Z,21.50
2022-10-05T12:12:57.118Z,22.40
2022-10-05T12:13:56.843Z,22.30
2022-10-05T12:14:56.837Z,22.25
2022-10-05T12:15:56.843Z,22.21
2022-10-05T12:16:56.801Z,21.77
2022-10-05T12:17:56.790Z,22.06
2022-10-05T12:18:56.802Z,21.71
2022-10-05T12:19:56.762Z,21.42
2022-10-05T12:20:56.760Z,21.25
2022-10-05T12:21:56.747Z,21.67
2022-10-05T12:22:57.118Z,22.52
2022-10-05T12:23:56.737Z,23.32
2022-10-05T12:24:56.715Z,23.23
2022-10-05T12:25:56.700Z,23.65
2022-10-05T12:26:56.710Z,22.77
2022-10-05T12:27:56.781Z,22.42
2022-10-05T12:28:56.703Z,22.52
2022-10-05T12:29:56.670Z,22.46
2022-10-05T12:30:56.648Z,22.40
2022-10-05T12:31:56.636Z,21.82
2022-10-05T12:33:01.710Z,22.51
2022-10-05T12:33:56.634Z,22.60
2022-10-05T12:35:01.778Z,22.62
2022-10-05T12:35:56.593Z,22.92
2022-10-05T12:37:04.072Z,22.36
2022-10-05T12:37:56.573Z,22.64
2022-10-05T12:38:56.576Z,22.39
2022-10-05T12:39:56.560Z,22.14
2022-10-05T12:40:56.539Z,22.31
2022-10-05T12:41:56.550Z,22.42
2022-10-05T12:42:56.531Z,22.92
2022-10-05T12:43:56.531Z,22.77
2022-10-05T12:44:56.516Z,22.40
2022-10-05T12:45:56.547Z,23.22
2022-10-05T12:46:56.474Z,23.50
2022-10-05T12:47:56.489Z,24.12
2022-10-05T12:48:56.469Z,23.60
2022-10-05T12:49:56.436Z,23.50
2022-10-05T12:50:56.435Z,23.93
2022-10-05T12:51:56.450Z,23.46
2022-10-05T12:52:56.427Z,23.48
2022-10-05T12:53:56.405Z,23.39
2022-10-05T12:54:56.405Z,23.57
2022-10-05T12:55:56.370Z,23.10
2022-10-05T12:56:56.368Z,23.10
2022-10-05T12:57:56.346Z,22.82
2022-10-05T12:58:56.362Z,23.66
2022-10-05T12:59:56.360Z,24.27
2022-10-05T13:00:56.369Z,24.45
2022-10-05T13:01:56.331Z,23.33
2022-10-05T13:02:56.295Z,23.00
2022-10-05T13:03:56.311Z,23.04
2022-10-05T13:04:56.306Z,23.51
2022-10-05T13:06:00.313Z,23.55
2022-10-05T13:06:56.259Z,23.40
2022-10-05T13:07:56.235Z,22.75
2022-10-05T13:08:56.248Z,22.43
2022-10-05T13:09:56.215Z,22.58
2022-10-05T13:10:59.917Z,22.52
2022-10-05T13:11:56.204Z,22.12
2022-10-05T13:12:56.193Z,21.80
2022-10-05T13:13:56.180Z,21.69
2022-10-05T13:14:56.173Z,21.79
2022-10-05T13:15:56.186Z,21.56
2022-10-05T13:16:56.202Z,20.99
2022-10-05T13:17:56.143Z,20.85
2022-10-05T13:18:56.131Z,20.72
2022-10-05T13:19:56.105Z,20.85
2022-10-05T13:20:56.104Z,20.84
2022-10-05T13:21:56.080Z,21.06
2022-10-05T13:22:56.091Z,21.10
2022-10-05T13:23:57.553Z,20.95
2022-10-05T13:24:56.053Z,20.66
2022-10-05T13:25:56.043Z,20.52
2022-10-05T13:26:56.029Z,20.62
2022-10-05T13:27:56.109Z,20.64
2022-10-05T13:28:56.028Z,20.72
2022-10-05T13:29:55.996Z,20.84
2022-10-05T13:30:55.984Z,20.57
2022-10-05T13:31:55.975Z,20.48
2022-10-05T13:32:56.009Z,20.31
2022-10-05T13:33:55.960Z,20.28
2022-10-05T13:34:55.946Z,20.42
2022-10-05T13:35:56.054Z,20.57
2022-10-05T13:36:55.952Z,20.72
2022-10-05T13:37:55.906Z,20.89
2022-10-05T13:38:55.910Z,20.64
2022-10-05T13:39:55.894Z,20.57
2022-10-05T13:40:55.872Z,20.57
2022-10-05T13:41:55.861Z,20.50
2022-10-05T13:42:55.848Z,20.51
2022-10-05T13:43:55.834Z,20.64
2022-10-05T13:44:55.852Z,20.61
2022-10-05T13:45:56.930Z,20.58
2022-10-05T13:46:55.808Z,20.47
2022-10-05T13:47:55.793Z,20.41
2022-10-05T13:48:55.782Z,20.41
2022-10-05T13:49:55.792Z,20.33
2022-10-05T13:50:55.764Z,20.38
2022-10-05T13:51:55.753Z,20.36
2022-10-05T13:52:55.777Z,20.33
2022-10-05T13:53:55.724Z,20.35
2022-10-05T13:54:55.729Z,20.38
2022-10-05T13:55:55.704Z,20.38
2022-10-05T13:56:55.700Z,20.39
2022-10-05T13:57:55.679Z,20.33
2022-10-05T13:58:55.674Z,20.51
2022-10-05T13:59:55.670Z,20.57
2022-10-05T14:00:55.648Z,20.61
2022-10-05T14:01:55.679Z,20.52
2022-10-05T14:02:55.729Z,20.55
2022-10-05T14:03:55.623Z,20.43
2022-10-05T14:04:55.619Z,20.41
2022-10-05T14:05:56.014Z,20.50
2022-10-05T14:06:55.583Z,20.42
2022-10-05T14:07:55.578Z,20.50
2022-10-05T14:08:55.558Z,20.43
2022-10-05T14:09:55.555Z,20.51
2022-10-05T14:10:55.546Z,20.55
2022-10-05T14:11:55.521Z,20.55
2022-10-05T14:12:55.517Z,20.57
2022-10-05T14:13:55.505Z,20.51
2022-10-05T14:14:55.513Z,20.54
2022-10-05T14:15:55.479Z,20.48
2022-10-05T14:16:55.654Z,20.51
2022-10-05T14:17:55.456Z,20.50
2022-10-05T14:18:55.456Z,20.48
2022-10-05T14:19:55.459Z,20.47
2022-10-05T14:20:55.427Z,20.54
2022-10-05T14:21:55.412Z,20.52
2022-10-05T14:22:55.411Z,20.47
2022-10-05T14:23:55.389Z,20.41
2022-10-05T14:24:55.426Z,20.41
2022-10-05T14:25:55.392Z,20.47
2022-10-05T14:26:55.372Z,20.48
2022-10-05T14:27:55.420Z,20.52
2022-10-05T14:28:55.337Z,20.52
2022-10-05T14:29:55.346Z,20.50
2022-10-05T14:30:58.906Z,20.59
2022-10-05T14:31:55.397Z,20.64
2022-10-05T14:32:55.292Z,20.64
2022-10-05T14:33:55.281Z,20.61
2022-10-05T14:34:55.272Z,20.51
2022-10-05T14:35:55.270Z,20.57
2022-10-05T14:36:55.271Z,20.57
2022-10-05T14:37:55.247Z,20.55
2022-10-05T14:38:55.230Z,20.57
2022-10-05T14:39:55.225Z,20.55
2022-10-05T14:40:55.211Z,20.67
2022-10-05T14:41:55.196Z,20.70
2022-10-05T14:42:55.186Z,20.69
2022-10-05T14:43:55.169Z,20.72
2022-10-05T14:44:55.183Z,20.70
2022-10-05T14:45:55.284Z,20.69
2022-10-05T14:46:55.142Z,20.70
2022-10-05T14:47:55.163Z,20.77
2022-10-05T14:48:55.114Z,20.88
2022-10-05T14:49:55.124Z,21.04
2022-10-05T14:50:55.109Z,21.04
2022-10-05T14:51:55.076Z,20.97
2022-10-05T14:52:55.074Z,20.95
2022-10-05T14:53:55.103Z,20.82
2022-10-05T14:54:55.072Z,20.70
2022-10-05T14:55:55.032Z,20.73
2022-10-05T14:56:55.030Z,20.70
2022-10-05T14:57:55.020Z,20.79
2022-10-05T14:58:55.003Z,20.73
2022-10-05T14:59:54.993Z,20.69
2022-10-05T15:00:55.044Z,20.64
2022-10-05T15:01:55.025Z,20.66
2022-10-05T15:02:54.969Z,20.52
2022-10-05T15:03:54.958Z,20.59
2022-10-05T15:04:54.940Z,20.64
2022-10-05T15:05:54.934Z,20.62
2022-10-05T15:06:56.843Z,20.70
2022-10-05T15:07:54.895Z,20.61
2022-10-05T15:08:54.890Z,20.50
2022-10-05T15:09:55.061Z,20.42
2022-10-05T15:10:54.890Z,20.33
2022-10-05T15:11:54.863Z,20.38
2022-10-05T15:12:54.850Z,20.58
2022-10-05T15:13:54.834Z,20.77
2022-10-05T15:14:54.840Z,20.79
2022-10-05T15:15:54.887Z,20.74
2022-10-05T15:16:54.865Z,20.59
2022-10-05T15:17:54.788Z,20.57
2022-10-05T15:18:54.791Z,20.48
2022-10-05T15:19:54.768Z,20.54
2022-10-05T15:20:54.768Z,20.66
2022-10-05T15:21:54.743Z,20.79
2022-10-05T15:22:54.738Z,20.95
2022-10-05T15:23:54.723Z,20.91
2022-10-05T15:24:54.715Z,20.70
2022-10-05T15:25:54.711Z,20.69
2022-10-05T15:26:54.700Z,20.73
2022-10-05T15:27:54.737Z,20.72
2022-10-05T15:28:54.677Z,20.69
2022-10-05T15:29:54.663Z,20.61
2022-10-05T15:30:54.735Z,20.41
2022-10-05T15:31:54.630Z,20.38
2022-10-05T15:32:54.680Z,20.32
2022-10-05T15:33:54.610Z,20.28
2022-10-05T15:34:54.606Z,20.36
2022-10-05T15:35:54.629Z,20.38
2022-10-05T15:36:54.576Z,20.33
2022-10-05T15:37:54.597Z,20.26
2022-10-05T15:38:58.140Z,20.26
2022-10-05T15:39:54.555Z,20.39
2022-10-05T15:40:54.568Z,20.32
2022-10-05T15:41:54.536Z,20.42
2022-10-05T15:42:54.559Z,20.59
2022-10-05T15:43:54.494Z,20.47
2022-10-05T15:44:54.493Z,20.31
2022-10-05T15:45:54.508Z,20.26
2022-10-05T15:46:54.484Z,20.20
2022-10-05T15:47:54.450Z,20.23
2022-10-05T15:48:54.452Z,20.23
2022-10-05T15:49:54.430Z,20.29
2022-10-05T15:50:54.423Z,20.21
2022-10-05T15:51:54.423Z,20.17
2022-10-05T15:52:54.398Z,20.20
2022-10-05T15:53:54.382Z,20.32
2022-10-05T15:54:54.376Z,20.29
2022-10-05T15:55:54.375Z,20.21
2022-10-05T15:56:54.353Z,20.03
2022-10-05T15:57:54.358Z,19.86
2022-10-05T15:58:54.329Z,19.81
2022-10-05T15:59:54.318Z,19.91
2022-10-05T16:00:54.387Z,20.03
2022-10-05T16:01:54.516Z,20.08
2022-10-05T16:02:54.410Z,19.99
2022-10-05T16:03:54.275Z,19.99
2022-10-05T16:04:54.273Z,19.96
2022-10-05T16:05:54.252Z,19.91
2022-10-05T16:06:54.257Z,19.88
2022-10-05T16:07:54.229Z,19.92
2022-10-05T16:08:54.391Z,19.95
2022-10-05T16:09:54.210Z,19.98
2022-10-05T16:10:54.199Z,20.02
2022-10-05T16:11:54.201Z,20.05
2022-10-05T16:12:54.206Z,19.96
2022-10-05T16:13:54.166Z,19.91
2022-10-05T16:14:54.169Z,19.83
2022-10-05T16:15:54.138Z,19.69
2022-10-05T16:16:54.211Z,19.62
2022-10-05T16:17:54.117Z,19.62
2022-10-05T16:18:54.117Z,19.61
2022-10-05T16:19:54.095Z,19.54
2022-10-05T16:20:54.105Z,19.47
2022-10-05T16:21:54.119Z,19.47
2022-10-05T16:22:54.073Z,19.47
2022-10-05T16:23:54.058Z,19.37
2022-10-05T16:24:54.046Z,19.28
2022-10-05T16:25:54.070Z,19.32
2022-10-05T16:26:54.036Z,19.26
2022-10-05T16:27:54.057Z,19.21
2022-10-05T16:28:54.002Z,19.18
2022-10-05T16:29:54.003Z,19.06
2022-10-05T16:30:54.026Z,19.00
2022-10-05T16:31:53.985Z,19.02
2022-10-05T16:32:53.962Z,18.91
2022-10-05T16:33:53.959Z,18.88
2022-10-05T16:34:53.949Z,18.87
2022-10-05T16:35:53.936Z,18.85
2022-10-05T16:36:53.960Z,18.90
2022-10-05T16:37:53.912Z,18.92
2022-10-05T16:38:53.922Z,18.95
2022-10-05T16:39:53.901Z,18.85
2022-10-05T16:40:57.261Z,18.84
2022-10-05T16:41:53.895Z,18.87
2022-10-05T16:42:53.856Z,18.91
2022-10-05T16:43:53.852Z,18.88
2022-10-05T16:44:53.833Z,18.81
2022-10-05T16:45:53.902Z,18.78
2022-10-05T16:46:53.941Z,18.73
2022-10-05T16:47:53.829Z,18.66
2022-10-05T16:48:53.795Z,18.55
2022-10-05T16:49:53.790Z,18.51
2022-10-05T16:50:53.771Z,18.47
2022-10-05T16:51:53.796Z,18.48
2022-10-05T16:52:53.758Z,18.44
2022-10-05T16:53:53.744Z,18.55
2022-10-05T16:54:53.731Z,18.57
2022-10-05T16:55:53.724Z,18.58
2022-10-05T16:56:53.722Z,18.55
2022-10-05T16:57:53.708Z,18.48
2022-10-05T16:58:53.689Z,18.37
2022-10-05T16:59:53.691Z,18.37
2022-10-05T17:00:53.686Z,18.35
2022-10-05T17:01:53.763Z,18.29
2022-10-05T17:02:53.696Z,18.23
2022-10-05T17:03:53.648Z,18.15
2022-10-05T17:04:53.639Z,18.12
2022-10-05T17:05:53.626Z,18.15
2022-10-05T17:06:53.620Z,18.25
2022-10-05T17:07:53.600Z,18.20
2022-10-05T17:08:53.585Z,18.20
2022-10-05T17:09:53.578Z,18.21
2022-10-05T17:10:53.564Z,18.14
2022-10-05T17:11:53.578Z,18.10
2022-10-05T17:12:53.551Z,18.03
2022-10-05T17:13:53.543Z,18.14
2022-10-05T17:14:53.539Z,18.11
2022-10-05T17:15:53.548Z,18.14
2022-10-05T17:16:53.500Z,18.12
2022-10-05T17:17:53.506Z,18.15
2022-10-05T17:18:53.484Z,18.17
2022-10-05T17:19:53.473Z,18.21
2022-10-05T17:20:53.459Z,18.26
2022-10-05T17:21:53.452Z,18.26
2022-10-05T17:22:53.452Z,18.23
2022-10-05T17:23:53.433Z,18.25
2022-10-05T17:24:53.421Z,18.27
2022-10-05T17:25:53.419Z,18.26
2022-10-05T17:26:53.414Z,18.23
2022-10-05T17:27:53.406Z,18.17
2022-10-05T17:28:53.374Z,18.10
2022-10-05T17:29:53.369Z,18.08
2022-10-05T17:30:53.376Z,18.11
2022-10-05T17:31:53.382Z,18.14
2022-10-05T17:32:53.447Z,18.14
2022-10-05T17:33:53.327Z,18.12
2022-10-05T17:34:53.311Z,18.17
2022-10-05T17:35:53.301Z,18.14
2022-10-05T17:36:53.299Z,18.08
2022-10-05T17:37:53.351Z,18.03